Time;durP1;ratioP1;P1;durP2;ratioP2;P2;SDS_P1;SDS_P2;PMS_P1;PMS_P2;Temp;Humidity;BMP_temperature;BMP_pressure;BME280_temperature;BME280_humidity;BME280_pressure;Samples;Min_cycle;Max_cycle;Signal;HPM_P1;HPM_P2
2022/02/23 00:02:04;;;;;;;73.97;37.50;;;;;;;2.24;64.04;94341.80;1665127;85;21136;-54
2022/02/23 00:04:31;;;;;;;55.55;26.37;;;;;;;2.18;63.91;94352.92;1672444;84;21061;-55
2022/02/23 00:06:58;;;;;;;85.03;38.60;;;;;;;2.14;63.99;94352.19;1662797;85;21691;-56
2022/02/23 00:09:25;;;;;;;70.52;33.50;;;;;;;2.12;64.29;94361.33;1664214;84;21150;-56
2022/02/23 00:11:51;;;;;;;99.32;38.48;;;;;;;2.18;64.12;94351.56;1674320;85;21025;-56
2022/02/23 00:14:18;;;;;;;79.25;38.40;;;;;;;2.27;64.01;94350.48;1669113;85;21439;-56
2022/02/23 00:16:47;;;;;;;81.53;36.00;;;;;;;2.33;63.71;94352.36;1663374;85;21077;-57
2022/02/23 00:19:13;;;;;;;163.47;71.15;;;;;;;2.41;63.56;94355.77;1662692;85;21026;-57
2022/02/23 00:21:39;;;;;;;103.60;46.05;;;;;;;2.51;63.54;94361.08;1665970;85;21033;-55
2022/02/23 00:24:07;;;;;;;59.67;31.77;;;;;;;2.56;63.25;94363.95;1665132;84;21438;-55
2022/02/23 00:26:34;;;;;;;65.62;32.40;;;;;;;2.42;63.31;94366.81;1682275;85;21026;-55
2022/02/23 00:29:03;;;;;;;47.85;27.20;;;;;;;2.25;63.73;94363.69;1682032;85;21124;-56
2022/02/23 00:31:31;;;;;;;73.02;35.00;;;;;;;2.05;63.90;94362.73;1677342;84;21086;-56
2022/02/23 00:33:57;;;;;;;70.17;36.23;;;;;;;1.90;64.64;94366.17;1665368;85;21185;-56
2022/02/23 00:36:24;;;;;;;69.20;34.25;;;;;;;1.84;64.98;94368.35;1653263;85;21082;-55
2022/02/23 00:38:50;;;;;;;68.35;33.98;;;;;;;1.85;65.23;94367.18;1676835;85;20982;-57
2022/02/23 00:41:17;;;;;;;65.60;32.30;;;;;;;1.92;65.45;94363.82;1671563;84;21105;-55
2022/02/23 00:43:43;;;;;;;67.40;32.15;;;;;;;2.00;65.03;94365.89;1660944;85;21078;-56
2022/02/23 00:46:10;;;;;;;69.17;32.75;;;;;;;1.97;65.14;94365.34;1672684;84;21100;-55
2022/02/23 00:48:37;;;;;;;63.35;31.00;;;;;;;2.02;64.96;94365.68;1670152;85;21072;-55
2022/02/23 00:51:03;;;;;;;60.12;31.60;;;;;;;2.03;64.58;94360.44;1673062;85;21085;-56
2022/02/23 00:53:30;;;;;;;65.83;32.42;;;;;;;2.03;64.54;94354.23;1682008;85;21030;-56
2022/02/23 00:55:57;;;;;;;62.75;30.92;;;;;;;2.03;64.51;94356.94;1682227;84;21467;-56
2022/02/23 00:58:23;;;;;;;85.53;40.98;;;;;;;2.04;64.63;94355.20;1682097;85;21172;-57
2022/02/23 01:00:50;;;;;;;77.87;37.83;;;;;;;2.08;64.54;94361.92;1662889;84;20979;-55
2022/02/23 01:03:16;;;;;;;70.78;36.77;;;;;;;2.12;64.45;94353.94;1642980;85;21085;-55
2022/02/23 01:05:43;;;;;;;91.53;44.30;;;;;;;2.12;64.24;94355.30;1673603;85;21557;-56
2022/02/23 01:08:10;;;;;;;88.07;42.50;;;;;;;2.12;64.30;94351.83;1671479;84;20978;-57
2022/02/23 01:10:38;;;;;;;88.67;42.88;;;;;;;2.05;64.51;94355.95;1659290;85;21533;-55
2022/02/23 01:13:05;;;;;;;81.57;39.53;;;;;;;1.98;64.41;94351.95;1665191;85;21066;-55
2022/02/23 01:15:32;;;;;;;74.62;38.33;;;;;;;1.89;64.57;94348.36;1668041;84;21073;-57
2022/02/23 01:17:58;;;;;;;103.02;46.45;;;;;;;1.88;64.65;94359.59;1669020;84;20994;-57
2022/02/23 01:20:25;;;;;;;107.85;49.88;;;;;;;1.82;64.65;94360.64;1663210;85;20989;-58
2022/02/23 01:22:55;;;;;;;133.90;60.67;;;;;;;1.76;64.91;94353.33;1672048;84;21503;-57
2022/02/23 01:25:21;;;;;;;111.57;52.27;;;;;;;1.74;64.96;94359.14;1665954;85;21126;-58
2022/02/23 01:27:48;;;;;;;123.25;52.33;;;;;;;1.73;65.29;94364.95;1663760;85;21015;-58
2022/02/23 01:30:17;;;;;;;111.62;48.38;;;;;;;1.78;65.08;94369.97;1658693;85;21463;-57
2022/02/23 01:32:44;;;;;;;95.12;43.63;;;;;;;1.81;65.16;94362.38;1654045;85;21034;-56
2022/02/23 01:35:11;;;;;;;70.57;35.28;;;;;;;1.87;64.59;94368.91;1670299;85;21110;-56
2022/02/23 01:37:38;;;;;;;74.87;34.45;;;;;;;1.71;64.40;94369.25;1667125;85;20959;-56
2022/02/23 01:40:07;;;;;;;72.80;33.78;;;;;;;1.43;64.80;94378.36;1673534;84;21515;-57
2022/02/23 01:42:33;;;;;;;66.57;31.97;;;;;;;1.21;65.60;94376.19;1674188;85;21511;-56
2022/02/23 01:45:00;;;;;;;67.50;32.65;;;;;;;1.13;66.08;94372.74;1653604;85;20981;-57
2022/02/23 01:47:27;;;;;;;68.05;33.85;;;;;;;1.07;66.21;94386.52;1666674;84;21188;-56
2022/02/23 01:49:56;;;;;;;70.87;32.85;;;;;;;1.05;66.56;94381.30;1663878;85;21517;-56
2022/02/23 01:52:25;;;;;;;60.00;31.52;;;;;;;1.01;66.70;94384.05;1664415;84;21098;-57
2022/02/23 01:54:53;;;;;;;44.80;24.35;;;;;;;1.01;67.25;94389.47;1652637;85;21113;-57
2022/02/23 01:57:20;;;;;;;85.92;39.98;;;;;;;1.01;66.76;94391.39;1671068;84;20966;-59
2022/02/23 01:59:47;;;;;;;103.65;47.75;;;;;;;1.03;66.91;94392.55;1661075;85;21188;-57
2022/02/23 02:02:14;;;;;;;101.45;46.58;;;;;;;0.99;67.00;94395.08;1667466;85;21005;-58
2022/02/23 02:04:41;;;;;;;101.47;47.08;;;;;;;0.96;67.50;94389.10;1676582;85;21070;-58
2022/02/23 02:07:08;;;;;;;99.17;49.88;;;;;;;1.00;67.61;94392.56;1682104;83;20990;-58
2022/02/23 02:09:35;;;;;;;90.00;44.88;;;;;;;1.05;67.53;94393.48;1677557;84;21041;-54
2022/02/23 02:12:04;;;;;;;77.92;38.40;;;;;;;1.15;67.79;94401.55;1665170;85;21105;-56
2022/02/23 02:14:31;;;;;;;61.35;33.08;;;;;;;1.24;67.44;94396.48;1662900;85;21577;-56
2022/02/23 02:16:57;;;;;;;47.95;25.92;;;;;;;1.27;67.43;94391.63;1664434;85;21014;-56
2022/02/23 02:19:24;;;;;;;46.98;24.57;;;;;;;1.36;67.39;94400.07;1674144;84;21081;-56
2022/02/23 02:21:57;;;;;;;41.95;23.92;;;;;;;1.44;67.11;94393.45;1669470;85;21553;-56
2022/02/23 02:24:25;;;;;;;44.77;24.63;;;;;;;1.53;66.91;94408.67;1670246;84;21151;-56
2022/02/23 02:26:52;;;;;;;50.38;26.25;;;;;;;1.65;66.88;94398.72;1668206;85;21523;-56
2022/02/23 02:29:19;;;;;;;67.92;36.83;;;;;;;1.80;66.71;94404.22;1663361;85;21015;-57
2022/02/23 02:31:47;;;;;;;77.30;38.70;;;;;;;1.89;66.20;94406.66;1668883;84;20967;-57
2022/02/23 02:34:15;;;;;;;88.50;41.35;;;;;;;1.82;66.00;94398.59;1667977;84;21589;-56
2022/02/23 02:36:42;;;;;;;110.08;50.05;;;;;;;1.65;66.02;94402.03;1663614;84;21562;-56
2022/02/23 02:39:09;;;;;;;102.75;50.38;;;;;;;1.53;66.64;94399.19;1670203;85;20985;-57
2022/02/23 02:41:35;;;;;;;91.90;48.52;;;;;;;1.55;66.72;94399.58;1677245;84;21070;-55
2022/02/23 02:44:04;;;;;;;97.50;49.63;;;;;;;1.57;66.71;94395.89;1680143;84;21509;-55
2022/02/23 02:46:30;;;;;;;78.42;40.00;;;;;;;1.55;66.85;94399.58;1673972;84;20982;-56
2022/02/23 02:48:57;;;;;;;73.52;38.75;;;;;;;1.59;66.92;94394.90;1672640;85;21136;-56
2022/02/23 02:51:23;;;;;;;99.52;48.70;;;;;;;1.58;66.36;94400.14;1649250;84;21550;-56
2022/02/23 02:53:50;;;;;;;124.70;56.10;;;;;;;1.50;66.53;94398.63;1674821;84;20995;-56
2022/02/23 02:56:16;;;;;;;121.55;59.60;;;;;;;1.43;66.70;94401.40;1664832;85;21047;-56
2022/02/23 02:58:43;;;;;;;104.67;54.25;;;;;;;1.40;67.16;94399.48;1668230;85;21038;-57
2022/02/23 03:01:09;;;;;;;91.17;47.78;;;;;;;1.44;67.38;94398.87;1668947;84;21070;-56
2022/02/23 03:03:37;;;;;;;85.15;43.98;;;;;;;1.50;67.52;94402.69;1659440;84;20958;-56
2022/02/23 03:06:03;;;;;;;76.92;40.05;;;;;;;1.56;67.40;94406.55;1684342;84;21046;-56
2022/02/23 03:08:30;;;;;;;71.87;38.95;;;;;;;1.63;67.49;94388.86;1666491;85;21006;-56
2022/02/23 03:10:56;;;;;;;111.95;55.70;;;;;;;1.75;67.14;94397.88;1667352;85;20991;-56
2022/02/23 03:13:23;;;;;;;99.65;52.67;;;;;;;1.81;66.79;94398.38;1680175;85;21917;-57
2022/02/23 03:15:49;;;;;;;107.03;54.63;;;;;;;1.74;66.62;94393.63;1662801;85;21194;-55
2022/02/23 03:18:17;;;;;;;92.55;48.33;;;;;;;1.68;66.69;94395.81;1660715;85;21538;-56
2022/02/23 03:20:44;;;;;;;87.95;44.65;;;;;;;1.67;66.96;94396.98;1662036;85;21019;-56
2022/02/23 03:23:10;;;;;;;76.35;41.18;;;;;;;1.60;66.93;94386.95;1678926;85;20978;-57
2022/02/23 03:25:37;;;;;;;68.85;35.28;;;;;;;1.57;67.19;94384.27;1667340;84;21936;-56
2022/02/23 03:28:04;;;;;;;57.73;33.25;;;;;;;1.56;67.22;94386.22;1665713;85;21079;-57
2022/02/23 03:30:30;;;;;;;65.03;33.58;;;;;;;1.59;67.04;94384.06;1672299;84;21037;-56
2022/02/23 03:32:57;;;;;;;60.80;31.60;;;;;;;1.64;66.96;94376.84;1663422;85;21126;-54
2022/02/23 03:35:27;;;;;;;65.40;33.98;;;;;;;1.64;66.75;94372.00;1670353;84;21102;-56
2022/02/23 03:37:55;;;;;;;68.90;35.40;;;;;;;1.65;67.09;94373.56;1677349;84;21187;-56
2022/02/23 03:40:22;;;;;;;67.87;35.03;;;;;;;1.76;66.84;94370.35;1677354;84;21030;-57
2022/02/23 03:42:50;;;;;;;72.12;36.40;;;;;;;1.75;66.52;94365.34;1658655;85;21101;-56
2022/02/23 03:45:17;;;;;;;65.80;35.15;;;;;;;1.70;66.80;94367.11;1662579;85;21046;-57
2022/02/23 03:47:44;;;;;;;64.62;35.45;;;;;;;1.75;66.62;94372.12;1663572;85;21594;-57
2022/02/23 03:50:11;;;;;;;62.98;35.90;;;;;;;1.74;66.68;94367.87;1678722;84;21206;-56
2022/02/23 03:52:39;;;;;;;78.55;41.63;;;;;;;1.79;66.76;94379.64;1670330;84;21101;-57
2022/02/23 03:55:07;;;;;;;94.42;52.62;;;;;;;1.84;66.89;94373.77;1667580;85;21073;-56
2022/02/23 03:57:34;;;;;;;90.32;48.55;;;;;;;1.93;66.88;94360.54;1665811;85;21041;-59
2022/02/23 04:00:01;;;;;;;99.45;50.48;;;;;;;1.98;66.82;94366.27;1670107;84;21025;-56
2022/02/23 04:02:30;;;;;;;120.67;58.83;;;;;;;2.01;66.83;94358.72;1658930;84;21817;-56
2022/02/23 04:04:56;;;;;;;103.65;51.73;;;;;;;2.15;66.94;94362.63;1672022;85;20975;-56
2022/02/23 04:07:23;;;;;;;101.82;52.62;;;;;;;2.31;66.17;94361.49;1654391;85;20991;-56
2022/02/23 04:09:49;;;;;;;100.55;52.08;;;;;;;2.29;65.60;94356.31;1655321;85;21027;-57
2022/02/23 04:12:17;;;;;;;121.05;59.03;;;;;;;2.17;65.82;94357.56;1658890;85;20990;-56
2022/02/23 04:14:45;;;;;;;131.40;63.60;;;;;;;2.10;65.94;94362.31;1683110;84;21014;-56
2022/02/23 04:17:12;;;;;;;134.80;71.07;;;;;;;1.99;66.15;94356.21;1679717;84;21072;-56
2022/02/23 04:19:39;;;;;;;175.60;84.35;;;;;;;1.96;66.47;94345.57;1649466;85;20975;-56
2022/02/23 04:22:07;;;;;;;182.97;92.25;;;;;;;2.06;66.81;94351.49;1668734;84;21001;-57
2022/02/23 04:24:34;;;;;;;185.50;88.42;;;;;;;2.14;66.62;94350.23;1669142;85;20972;-56
2022/02/23 04:27:01;;;;;;;204.47;103.85;;;;;;;2.23;66.70;94360.61;1672369;84;21808;-55
2022/02/23 04:29:28;;;;;;;199.53;100.30;;;;;;;2.30;66.32;94356.49;1668184;85;21434;-56
2022/02/23 04:31:55;;;;;;;179.63;93.40;;;;;;;2.29;66.24;94354.95;1667921;84;21470;-56
2022/02/23 04:34:22;;;;;;;113.40;58.13;;;;;;;2.36;66.12;94346.72;1663897;85;21105;-56
2022/02/23 04:36:49;;;;;;;110.55;54.15;;;;;;;2.34;65.76;94351.78;1669090;84;20996;-57
2022/02/23 04:39:15;;;;;;;100.47;49.75;;;;;;;2.22;65.69;94345.51;1664350;84;21791;-56
2022/02/23 04:41:42;;;;;;;106.27;52.00;;;;;;;2.12;65.83;94350.47;1679869;85;21022;-57
2022/02/23 04:44:09;;;;;;;115.60;59.45;;;;;;;2.02;66.08;94352.69;1665634;85;21002;-56
2022/02/23 04:46:36;;;;;;;111.45;57.83;;;;;;;1.90;66.35;94356.67;1667497;84;21522;-57
2022/02/23 04:49:03;;;;;;;121.72;61.83;;;;;;;1.96;66.84;94357.02;1661340;84;21020;-57
2022/02/23 04:51:30;;;;;;;122.78;64.12;;;;;;;1.99;66.46;94361.03;1665344;85;21133;-56
2022/02/23 04:53:58;;;;;;;160.70;78.02;;;;;;;1.98;66.52;94353.31;1673066;85;20975;-56
2022/02/23 04:56:24;;;;;;;136.32;70.22;;;;;;;2.02;66.57;94352.69;1663220;85;21026;-56
2022/02/23 04:58:51;;;;;;;148.47;74.00;;;;;;;2.02;66.33;94356.19;1667526;85;21679;-56
2022/02/23 05:01:18;;;;;;;138.70;73.78;;;;;;;1.96;66.40;94352.95;1668767;84;21035;-56
2022/02/23 05:03:45;;;;;;;134.97;74.67;;;;;;;1.98;66.49;94345.93;1674452;84;21077;-56
2022/02/23 05:06:12;;;;;;;150.27;79.37;;;;;;;2.01;66.56;94351.16;1663082;85;21634;-55
2022/02/23 05:08:39;;;;;;;116.97;63.00;;;;;;;2.07;66.34;94350.89;1677652;84;20994;-56
2022/02/23 05:11:05;;;;;;;119.45;62.45;;;;;;;2.04;66.29;94348.41;1671913;84;21170;-56
2022/02/23 05:13:33;;;;;;;112.35;59.50;;;;;;;2.03;66.67;94346.09;1666018;85;21546;-56
2022/02/23 05:16:02;;;;;;;108.47;57.08;;;;;;;2.09;66.63;94347.19;1667178;85;21767;-56
2022/02/23 05:18:30;;;;;;;104.50;54.95;;;;;;;2.01;66.39;94346.52;1673188;85;21094;-56
2022/02/23 05:20:58;;;;;;;105.60;54.35;;;;;;;1.85;66.51;94354.41;1667123;85;21470;-58
2022/02/23 05:23:24;;;;;;;120.22;63.50;;;;;;;1.68;66.82;94359.20;1668119;85;21494;-57
2022/02/23 05:25:51;;;;;;;110.75;59.67;;;;;;;1.58;67.42;94367.61;1682074;84;21022;-56
2022/02/23 05:28:18;;;;;;;103.25;59.18;;;;;;;1.61;67.67;94370.09;1665702;84;21573;-60
2022/02/23 05:30:45;;;;;;;161.45;74.58;;;;;;;1.62;67.45;94366.99;1676423;84;21476;-60
2022/02/23 05:33:11;;;;;;;188.30;78.45;;;;;;;1.49;67.60;94367.87;1675553;85;21039;-60
2022/02/23 05:35:39;;;;;;;144.65;78.10;;;;;;;1.37;68.05;94370.48;1658297;85;21494;-56
2022/02/23 05:38:07;;;;;;;125.87;70.05;;;;;;;1.37;68.57;94377.25;1682340;85;21018;-61
2022/02/23 05:40:34;;;;;;;120.55;67.47;;;;;;;1.48;68.79;94371.76;1668006;84;22279;-58
2022/02/23 05:43:00;;;;;;;135.93;77.32;;;;;;;1.54;68.52;94373.63;1660882;85;20964;-58
2022/02/23 05:45:27;;;;;;;118.35;67.55;;;;;;;1.62;68.94;94374.34;1659991;85;20979;-58
2022/02/23 05:47:53;;;;;;;112.52;59.67;;;;;;;1.74;68.35;94364.56;1655790;85;21112;-57
2022/02/23 05:50:20;;;;;;;117.75;62.58;;;;;;;1.76;68.04;94366.28;1672685;85;21421;-56
2022/02/23 05:52:47;;;;;;;107.32;59.55;;;;;;;1.77;67.99;94368.42;1662259;85;21139;-57
2022/02/23 05:55:13;;;;;;;108.80;57.90;;;;;;;1.80;67.75;94370.33;1672236;85;21030;-57
2022/02/23 05:57:40;;;;;;;100.25;57.50;;;;;;;1.80;67.71;94374.40;1659736;85;21021;-57
2022/02/23 06:00:09;;;;;;;104.90;57.43;;;;;;;1.82;67.77;94367.98;1673728;85;21462;-56
2022/02/23 06:02:39;;;;;;;107.55;56.88;;;;;;;1.80;67.78;94367.02;1652447;85;21015;-58
2022/02/23 06:05:08;;;;;;;146.60;80.67;;;;;;;1.76;67.91;94363.58;1663634;85;21143;-56
2022/02/23 06:07:36;;;;;;;143.95;82.47;;;;;;;1.76;67.94;94366.88;1681801;84;21486;-58
2022/02/23 06:10:05;;;;;;;156.97;84.70;;;;;;;1.74;67.96;94370.59;1654919;85;21066;-58
2022/02/23 06:12:32;;;;;;;140.20;78.95;;;;;;;1.71;68.20;94375.42;1669386;85;21024;-57
2022/02/23 06:14:58;;;;;;;149.55;79.77;;;;;;;1.80;68.22;94376.51;1655720;85;21049;-60
2022/02/23 06:17:25;;;;;;;156.75;85.97;;;;;;;1.95;68.21;94374.47;1661826;85;21155;-57
2022/02/23 06:19:52;;;;;;;159.12;84.97;;;;;;;2.12;68.03;94379.71;1678299;85;21133;-58
2022/02/23 06:22:19;;;;;;;165.28;87.82;;;;;;;2.30;67.71;94382.27;1684523;85;21087;-57
2022/02/23 06:24:45;;;;;;;170.45;89.55;;;;;;;2.43;67.64;94384.06;1673847;84;21043;-55
2022/02/23 06:27:13;;;;;;;161.85;88.03;;;;;;;2.61;67.25;94387.35;1685857;83;21109;-59
2022/02/23 06:29:41;;;;;;;166.60;88.78;;;;;;;2.78;66.70;94392.38;1695817;83;21177;-58
2022/02/23 06:32:08;;;;;;;196.82;104.83;;;;;;;2.86;66.41;94389.78;1665281;84;21031;-59
2022/02/23 06:34:35;;;;;;;190.97;108.52;;;;;;;2.86;66.39;94395.22;1660836;84;21474;-57
2022/02/23 06:37:04;;;;;;;197.85;106.58;;;;;;;2.91;66.18;94401.55;1666411;83;21097;-56
2022/02/23 06:39:35;;;;;;;187.97;100.53;;;;;;;2.99;65.97;94402.99;1670047;83;21066;-57
2022/02/23 06:42:02;;;;;;;173.38;93.15;;;;;;;3.11;65.57;94409.25;1668306;84;21125;-57
2022/02/23 06:44:31;;;;;;;149.75;82.65;;;;;;;3.20;65.67;94395.34;1674386;83;21007;-57
2022/02/23 06:46:59;;;;;;;151.68;87.05;;;;;;;3.39;65.07;94404.21;1674827;83;21046;-57
2022/02/23 06:49:30;;;;;;;143.40;79.80;;;;;;;3.43;64.35;94398.73;1625429;85;21061;-58
2022/02/23 06:52:00;;;;;;;170.22;90.57;;;;;;;3.44;64.22;94409.79;1632268;86;21040;-57
2022/02/23 06:54:29;;;;;;;138.57;76.42;;;;;;;3.43;64.00;94402.81;1640128;86;21171;-59
2022/02/23 06:56:56;;;;;;;136.20;74.45;;;;;;;3.52;63.67;94412.75;1632175;86;21074;-58
2022/02/23 06:59:23;;;;;;;128.62;68.87;;;;;;;3.60;63.38;94401.97;1641672;86;21110;-58
2022/02/23 07:01:49;;;;;;;123.07;69.50;;;;;;;3.69;63.11;94404.17;1607327;88;21128;-59
2022/02/23 07:04:18;;;;;;;126.72;71.72;;;;;;;3.73;62.71;94407.61;1640101;86;21015;-57
2022/02/23 07:06:44;;;;;;;134.10;73.80;;;;;;;3.64;62.59;94404.04;1628516;86;21882;-60
2022/02/23 07:09:12;;;;;;;126.90;69.97;;;;;;;3.61;63.15;94408.16;1614703;86;21038;-60
2022/02/23 07:11:40;;;;;;;127.25;72.12;;;;;;;3.68;62.92;94407.47;1632096;86;21916;-58
2022/02/23 07:14:08;;;;;;;108.30;64.37;;;;;;;3.70;62.92;94416.59;1628982;86;22219;-60
2022/02/23 07:16:35;;;;;;;96.63;57.45;;;;;;;3.72;62.88;94409.54;1638109;86;21053;-59
2022/02/23 07:19:02;;;;;;;91.45;52.80;;;;;;;3.77;62.63;94409.09;1632133;86;21649;-56
2022/02/23 07:21:29;;;;;;;96.20;56.80;;;;;;;3.66;62.54;94400.31;1641243;86;21382;-59
2022/02/23 07:23:55;;;;;;;83.97;48.50;;;;;;;3.64;62.67;94408.70;1643280;85;21597;-62
2022/02/23 07:26:23;;;;;;;84.05;46.25;;;;;;;3.71;62.49;94395.01;1645279;86;21006;-59
2022/02/23 07:28:50;;;;;;;75.15;40.30;;;;;;;3.78;62.57;94406.55;1631251;86;21072;-57
2022/02/23 07:31:17;;;;;;;73.30;44.50;;;;;;;3.88;62.08;94394.72;1632833;86;21162;-58
2022/02/23 07:33:45;;;;;;;80.25;45.92;;;;;;;3.97;62.02;94396.34;1643372;86;21066;-56
2022/02/23 07:36:12;;;;;;;73.83;44.70;;;;;;;4.05;61.86;94395.03;1634209;86;21015;-59
2022/02/23 07:38:40;;;;;;;72.87;43.50;;;;;;;4.00;61.82;94396.88;1631117;86;21023;-59
2022/02/23 07:41:11;;;;;;;53.28;32.75;;;;;;;4.02;61.66;94394.50;1635148;86;21082;-60
2022/02/23 07:43:37;;;;;;;56.18;33.18;;;;;;;4.16;61.29;94394.27;1639527;85;21831;-57
2022/02/23 07:46:05;;;;;;;100.38;57.33;;;;;;;4.29;60.81;94393.86;1633388;86;21782;-58
2022/02/23 07:48:33;;;;;;;98.50;56.90;;;;;;;4.36;60.79;94389.64;1615445;86;21529;-59
2022/02/23 07:51:03;;;;;;;88.42;48.00;;;;;;;4.46;60.73;94392.75;1624582;86;21141;-57
2022/02/23 07:53:29;;;;;;;75.60;44.13;;;;;;;4.61;60.83;94383.75;1631581;86;21097;-58
2022/02/23 07:55:55;;;;;;;86.32;46.20;;;;;;;4.74;60.40;94386.80;1645778;86;21109;-56
2022/02/23 07:58:22;;;;;;;81.05;43.98;;;;;;;4.92;59.95;94386.44;1638131;86;21094;-57
2022/02/23 08:00:49;;;;;;;62.62;37.93;;;;;;;4.95;59.53;94383.66;1615683;86;21062;-60
2022/02/23 08:03:17;;;;;;;44.77;26.45;;;;;;;4.91;59.46;94377.51;1638738;85;21107;-60
2022/02/23 08:05:44;;;;;;;42.43;23.92;;;;;;;4.92;59.17;94380.41;1620500;86;21145;-57
2022/02/23 08:08:11;;;;;;;40.45;25.60;;;;;;;4.92;59.13;94375.53;1622431;86;22342;-58
2022/02/23 08:10:39;;;;;;;48.10;29.87;;;;;;;4.89;59.19;94376.37;1677429;83;21071;-57
2022/02/23 08:13:07;;;;;;;61.75;36.25;;;;;;;4.83;59.05;94370.64;1677703;83;21160;-64
2022/02/23 08:21:04;;;;;;;63.33;37.13;;;;;;;5.24;58.30;94342.36;1688611;83;21160;-58
2022/02/23 08:23:32;;;;;;;29.98;16.67;;;;;;;5.38;57.94;94343.41;1673370;83;21010;-58
2022/02/23 08:26:00;;;;;;;11.25;6.22;;;;;;;5.58;53.82;94348.22;1676273;83;21734;-59
2022/02/23 08:28:27;;;;;;;16.87;6.72;;;;;;;5.88;51.55;94345.96;1671681;83;21151;-58
2022/02/23 08:30:54;;;;;;;11.43;7.87;;;;;;;6.25;50.62;94334.50;1670900;83;21046;-57
2022/02/23 08:33:21;;;;;;;14.60;8.20;;;;;;;6.57;50.28;94342.64;1681438;83;21075;-57
2022/02/23 08:35:51;;;;;;;11.73;7.42;;;;;;;6.87;49.00;94342.19;1674184;83;22039;-54
2022/02/23 08:38:19;;;;;;;12.93;7.10;;;;;;;7.14;48.10;94331.04;1693696;83;21562;-60
2022/02/23 08:40:46;;;;;;;10.03;6.65;;;;;;;7.33;46.37;94343.77;1671475;83;21042;-58
2022/02/23 08:43:13;;;;;;;12.80;8.73;;;;;;;7.42;46.31;94327.48;1685929;83;21096;-58
2022/02/23 08:45:40;;;;;;;7.20;6.47;;;;;;;7.55;46.56;94329.60;1694441;83;21831;-55
2022/02/23 08:48:09;;;;;;;7.30;5.22;;;;;;;7.74;46.08;94324.51;1682398;84;21077;-57
2022/02/23 08:50:37;;;;;;;6.62;5.42;;;;;;;7.91;44.79;94319.08;1656890;83;21093;-59
2022/02/23 08:53:04;;;;;;;16.02;5.17;;;;;;;8.01;44.09;94320.72;1677748;83;21374;-59
2022/02/23 08:55:31;;;;;;;22.75;6.22;;;;;;;8.00;44.19;94323.30;1683615;83;21777;-57
2022/02/23 08:57:58;;;;;;;17.67;9.88;;;;;;;8.01;44.72;94319.35;1679220;83;21183;-58
2022/02/23 09:00:25;;;;;;;10.55;6.22;;;;;;;8.05;43.81;94320.00;1680856;83;21554;-58
2022/02/23 09:02:52;;;;;;;24.07;7.97;;;;;;;8.14;43.59;94337.91;1668932;83;21026;-58
2022/02/23 09:05:19;;;;;;;10.05;6.85;;;;;;;8.24;43.76;94335.44;1673444;84;21021;-58
2022/02/23 09:07:47;;;;;;;7.85;6.58;;;;;;;8.32;42.69;94344.98;1688911;84;21170;-57
2022/02/23 09:10:15;;;;;;;8.50;5.10;;;;;;;8.38;42.79;94337.72;1665938;85;39058;-57
2022/02/23 09:12:43;;;;;;;11.45;5.12;;;;;;;8.40;42.66;94342.77;1678969;84;22166;-58
2022/02/23 09:15:12;;;;;;;7.12;4.87;;;;;;;8.30;42.78;94352.09;1666081;83;21081;-58
2022/02/23 09:17:44;;;;;;;6.90;4.30;;;;;;;8.13;43.18;94348.71;1673020;84;21534;-59
2022/02/23 09:20:12;;;;;;;4.92;4.42;;;;;;;7.97;43.06;94365.86;1664692;84;21077;-59
2022/02/23 09:22:39;;;;;;;5.62;4.22;;;;;;;7.72;43.63;94378.94;1680330;83;21125;-59
2022/02/23 09:25:06;;;;;;;4.62;4.20;;;;;;;7.54;44.13;94364.27;1686414;83;21058;-59
2022/02/23 09:27:39;;;;;;;9.90;4.75;;;;;;;7.44;44.92;94374.33;1673188;83;21073;-60
2022/02/23 09:30:11;;;;;;;6.45;5.42;;;;;;;7.40;45.07;94376.41;1694615;82;21181;-58
2022/02/23 09:32:39;;;;;;;13.65;6.10;;;;;;;7.33;45.19;94384.80;1699798;83;21097;-58
2022/02/23 09:35:07;;;;;;;8.05;5.22;;;;;;;7.31;45.29;94389.95;1657667;83;22915;-59
2022/02/23 09:37:34;;;;;;;5.92;4.90;;;;;;;7.29;44.81;94383.37;1687464;83;21058;-60
2022/02/23 09:40:05;;;;;;;8.80;5.37;;;;;;;7.19;44.73;94396.14;1691291;83;21042;-58
2022/02/23 09:42:32;;;;;;;7.90;5.97;;;;;;;7.07;45.65;94389.89;1682819;83;21070;-57
2022/02/23 09:45:00;;;;;;;6.40;5.60;;;;;;;7.00;45.98;94401.01;1683696;84;21051;-59
2022/02/23 09:47:30;;;;;;;9.18;5.37;;;;;;;6.91;46.23;94391.31;1657971;84;21443;-57
2022/02/23 09:49:56;;;;;;;5.50;4.75;;;;;;;6.84;46.13;94407.89;1682282;82;21057;-58
2022/02/23 09:52:24;;;;;;;10.85;4.90;;;;;;;6.77;46.52;94408.08;1681462;83;21073;-57
2022/02/23 09:54:54;;;;;;;7.58;5.87;;;;;;;6.71;46.85;94405.10;1685341;84;21046;-54
2022/02/23 09:57:20;;;;;;;6.33;5.03;;;;;;;6.75;46.75;94400.91;1671801;84;20975;-57
2022/02/23 09:59:48;;;;;;;5.65;5.10;;;;;;;6.84;46.70;94402.41;1649364;85;21525;-57
2022/02/23 10:02:20;;;;;;;7.37;5.00;;;;;;;6.88;46.73;94403.11;1682792;84;21058;-57
2022/02/23 10:04:49;;;;;;;7.62;5.17;;;;;;;6.95;46.77;94408.38;1685569;83;21038;-59
2022/02/23 10:07:18;;;;;;;7.08;5.70;;;;;;;7.02;46.78;94401.34;1649490;85;21046;-59
2022/02/23 10:09:54;;;;;;;8.85;5.15;;;;;;;7.09;46.65;94404.06;1649401;84;21014;-58
2022/02/23 10:12:26;;;;;;;7.30;5.10;;;;;;;7.22;46.42;94400.77;1638716;85;21566;-59
2022/02/23 10:15:12;;;;;;;20.70;7.28;;;;;;;7.40;46.01;94398.89;1648760;85;21113;-58
2022/02/23 10:17:47;;;;;;;13.53;7.62;;;;;;;7.55;46.26;94398.03;1678430;83;21593;-58
2022/02/23 10:20:28;;;;;;;8.30;5.87;;;;;;;7.72;46.19;94388.52;1686582;83;21138;-59
2022/02/23 10:23:00;;;;;;;6.33;5.05;;;;;;;7.89;45.23;94404.27;1682269;84;21140;-59
2022/02/23 10:25:29;;;;;;;9.58;5.17;;;;;;;7.89;44.67;94388.59;1669288;83;21289;-60
2022/02/23 10:28:08;;;;;;;5.70;4.37;;;;;;;7.84;44.38;94385.03;1664295;83;21568;-56
2022/02/23 10:30:47;;;;;;;5.62;4.70;;;;;;;7.69;44.86;94403.09;1678545;83;21022;-58
2022/02/23 10:33:26;;;;;;;6.17;5.25;;;;;;;7.50;45.40;94395.84;1659595;84;21140;-58
2022/02/23 10:35:56;;;;;;;9.60;7.03;;;;;;;7.38;45.90;94399.92;1675249;83;21054;-59
2022/02/23 10:38:28;;;;;;;12.15;5.75;;;;;;;7.36;45.60;94403.09;1659916;83;22332;-58
2022/02/23 10:40:56;;;;;;;13.13;5.90;;;;;;;7.38;45.32;94409.50;1683323;84;22003;-58
2022/02/23 10:43:36;;;;;;;13.78;6.35;;;;;;;7.36;45.61;94409.92;1673097;84;21094;-58
2022/02/23 10:46:09;;;;;;;7.90;5.70;;;;;;;7.31;45.86;94405.00;1665703;84;21033;-57
2022/02/23 10:48:42;;;;;;;8.25;6.97;;;;;;;7.34;45.75;94406.86;1631474;85;21472;-58
2022/02/23 10:51:10;;;;;;;;;;;;;;;7.35;45.91;94397.45;1657503;84;21152;-57
2022/02/23 10:53:37;;;;;;;9.73;6.35;;;;;;;7.37;45.88;94395.66;1614713;86;20167;-56
2022/02/23 10:56:30;;;;;;;23.67;7.37;;;;;;;7.33;45.72;94392.27;1625488;86;22300;-57
2022/02/23 10:59:15;;;;;;;10.10;6.42;;;;;;;7.32;45.75;94387.38;1663451;85;21054;-57
2022/02/23 11:01:44;;;;;;;9.63;7.10;;;;;;;7.23;45.77;94388.63;1667847;84;21496;-57
2022/02/23 11:04:11;;;;;;;11.28;5.95;;;;;;;7.13;45.99;94386.95;1615716;86;21134;-58
2022/02/23 11:06:39;;;;;;;8.63;6.78;;;;;;;7.06;46.50;94387.74;1648968;86;21094;-58
2022/02/23 11:09:07;;;;;;;8.90;5.92;;;;;;;7.09;46.40;94397.81;1637721;86;21121;-59
2022/02/23 11:11:34;;;;;;;7.97;5.97;;;;;;;7.15;46.22;94385.91;1639099;86;21054;-59
2022/02/23 11:14:02;;;;;;;10.25;6.45;;;;;;;7.18;46.37;94394.61;1633107;86;21045;-58
2022/02/23 11:16:32;;;;;;;8.38;5.95;;;;;;;7.16;46.47;94397.02;1616160;86;21807;-58
2022/02/23 11:19:01;;;;;;;7.00;5.80;;;;;;;7.11;46.87;94396.19;1628265;86;21642;-57
2022/02/23 11:21:34;;;;;;;7.80;5.00;;;;;;;7.08;47.02;94390.22;1648149;86;21082;-61
2022/02/23 11:24:10;;;;;;;8.25;4.95;;;;;;;7.11;46.56;94396.19;1637437;86;21071;-58
2022/02/23 11:26:34;;;;;;;8.55;5.50;;;;;;;7.10;46.62;94401.49;1679250;83;21089;-60
2022/02/23 11:29:10;;;;;;;8.15;5.90;;;;;;;7.15;46.47;94409.16;1666009;85;21785;-58
2022/02/23 11:31:37;;;;;;;8.63;6.85;;;;;;;7.21;46.51;94400.61;1657177;83;21114;-58
2022/02/23 11:34:06;;;;;;;10.32;7.40;;;;;;;7.24;46.24;94407.94;1692378;83;21027;-57
2022/02/23 11:36:42;;;;;;;8.65;6.20;;;;;;;7.24;46.78;94407.16;1689326;82;21105;-58